sensor_id;sensor_type;location;lat;lon;timestamp;temperature;humidity
21275;DHT22;36472;52.170;20.884;2022-08-03T00:02:18;30.80;56.70
21275;DHT22;36472;52.170;20.884;2022-08-03T00:04:47;30.80;56.60
21275;DHT22;36472;52.170;20.884;2022-08-03T00:07:16;30.70;56.60
21275;DHT22;36472;52.170;20.884;2022-08-03T00:09:46;30.70;56.60
21275;DHT22;36472;52.170;20.884;2022-08-03T00:12:15;30.70;56.50
21275;DHT22;36472;52.170;20.884;2022-08-03T00:14:44;30.70;56.50
21275;DHT22;36472;52.170;20.884;2022-08-03T00:17:13;30.60;56.80
21275;DHT22;36472;52.170;20.884;2022-08-03T00:19:41;30.60;56.90
21275;DHT22;36472;52.170;20.884;2022-08-03T00:22:10;30.60;56.80
21275;DHT22;36472;52.170;20.884;2022-08-03T00:24:39;30.60;56.80
21275;DHT22;36472;52.170;20.884;2022-08-03T00:27:09;30.50;56.80
21275;DHT22;36472;52.170;20.884;2022-08-03T00:29:42;30.50;56.80
21275;DHT22;36472;52.170;20.884;2022-08-03T00:32:26;30.50;56.70
21275;DHT22;36472;52.170;20.884;2022-08-03T00:34:55;30.50;56.70
21275;DHT22;36472;52.170;20.884;2022-08-03T00:37:25;30.50;56.70
21275;DHT22;36472;52.170;20.884;2022-08-03T00:40:10;30.50;56.70
21275;DHT22;36472;52.170;20.884;2022-08-03T00:42:51;30.50;56.70
21275;DHT22;36472;52.170;20.884;2022-08-03T00:45:23;30.50;56.60
21275;DHT22;36472;52.170;20.884;2022-08-03T00:47:54;30.50;56.60
21275;DHT22;36472;52.170;20.884;2022-08-03T00:50:24;30.50;56.60
21275;DHT22;36472;52.170;20.884;2022-08-03T00:52:56;30.60;56.70
21275;DHT22;36472;52.170;20.884;2022-08-03T00:55:26;30.60;56.60
21275;DHT22;36472;52.170;20.884;2022-08-03T00:57:56;30.60;56.60
21275;DHT22;36472;52.170;20.884;2022-08-03T01:00:27;30.50;56.50
21275;DHT22;36472;52.170;20.884;2022-08-03T01:02:55;30.60;56.50
21275;DHT22;36472;52.170;20.884;2022-08-03T01:05:24;30.70;56.50
21275;DHT22;36472;52.170;20.884;2022-08-03T01:08:01;30.70;56.40
21275;DHT22;36472;52.170;20.884;2022-08-03T01:10:38;30.70;56.30
21275;DHT22;36472;52.170;20.884;2022-08-03T01:13:21;30.70;56.20
21275;DHT22;36472;52.170;20.884;2022-08-03T01:16:20;30.60;56.10
21275;DHT22;36472;52.170;20.884;2022-08-03T01:19:17;30.60;56.20
21275;DHT22;36472;52.170;20.884;2022-08-03T01:22:06;30.50;56.30
21275;DHT22;36472;52.170;20.884;2022-08-03T01:24:52;30.50;56.30
21275;DHT22;36472;52.170;20.884;2022-08-03T01:27:33;30.50;56.30
21275;DHT22;36472;52.170;20.884;2022-08-03T01:30:15;30.50;56.20
21275;DHT22;36472;52.170;20.884;2022-08-03T01:32:49;30.50;56.10
21275;DHT22;36472;52.170;20.884;2022-08-03T01:35:32;30.50;56.10
21275;DHT22;36472;52.170;20.884;2022-08-03T01:38:09;30.50;56.20
21275;DHT22;36472;52.170;20.884;2022-08-03T01:40:40;30.40;56.20
21275;DHT22;36472;52.170;20.884;2022-08-03T01:43:15;30.40;56.30
21275;DHT22;36472;52.170;20.884;2022-08-03T01:46:09;30.30;56.30
21275;DHT22;36472;52.170;20.884;2022-08-03T01:48:41;30.30;56.50
21275;DHT22;36472;52.170;20.884;2022-08-03T01:51:14;30.30;56.50
21275;DHT22;36472;52.170;20.884;2022-08-03T01:53:46;30.30;56.60
21275;DHT22;36472;52.170;20.884;2022-08-03T01:56:18;30.20;56.50
21275;DHT22;36472;52.170;20.884;2022-08-03T01:58:50;30.20;56.50
21275;DHT22;36472;52.170;20.884;2022-08-03T02:01:23;30.20;56.40
21275;DHT22;36472;52.170;20.884;2022-08-03T02:04:16;30.10;56.40
21275;DHT22;36472;52.170;20.884;2022-08-03T02:06:47;30.20;56.40
21275;DHT22;36472;52.170;20.884;2022-08-03T02:09:29;30.20;56.30
21275;DHT22;36472;52.170;20.884;2022-08-03T02:11:59;30.10;56.40
21275;DHT22;36472;52.170;20.884;2022-08-03T02:14:29;30.10;56.40
21275;DHT22;36472;52.170;20.884;2022-08-03T02:17:00;30.00;56.40
21275;DHT22;36472;52.170;20.884;2022-08-03T02:19:31;30.00;56.40
21275;DHT22;36472;52.170;20.884;2022-08-03T02:22:02;30.00;56.60
21275;DHT22;36472;52.170;20.884;2022-08-03T02:24:33;29.90;56.60
21275;DHT22;36472;52.170;20.884;2022-08-03T02:27:04;29.80;56.60
21275;DHT22;36472;52.170;20.884;2022-08-03T02:29:38;29.80;56.70
21275;DHT22;36472;52.170;20.884;2022-08-03T02:32:13;29.80;56.90
21275;DHT22;36472;52.170;20.884;2022-08-03T02:34:50;29.80;56.90
21275;DHT22;36472;52.170;20.884;2022-08-03T02:37:26;29.80;56.90
21275;DHT22;36472;52.170;20.884;2022-08-03T02:40:01;29.80;57.00
21275;DHT22;36472;52.170;20.884;2022-08-03T02:42:32;29.80;57.00
21275;DHT22;36472;52.170;20.884;2022-08-03T02:45:06;29.80;56.90
21275;DHT22;36472;52.170;20.884;2022-08-03T02:47:42;29.70;56.70
21275;DHT22;36472;52.170;20.884;2022-08-03T02:50:21;29.80;56.80
21275;DHT22;36472;52.170;20.884;2022-08-03T02:52:53;29.80;56.90
21275;DHT22;36472;52.170;20.884;2022-08-03T02:55:25;29.70;56.60
21275;DHT22;36472;52.170;20.884;2022-08-03T02:57:54;29.70;56.70
21275;DHT22;36472;52.170;20.884;2022-08-03T03:00:28;29.70;56.80
21275;DHT22;36472;52.170;20.884;2022-08-03T03:03:01;29.70;56.70
21275;DHT22;36472;52.170;20.884;2022-08-03T03:05:31;29.70;56.70
21275;DHT22;36472;52.170;20.884;2022-08-03T03:08:24;29.70;56.90
21275;DHT22;36472;52.170;20.884;2022-08-03T03:10:56;29.70;57.00
21275;DHT22;36472;52.170;20.884;2022-08-03T03:13:27;29.70;56.90
21275;DHT22;36472;52.170;20.884;2022-08-03T03:15:59;29.70;56.90
21275;DHT22;36472;52.170;20.884;2022-08-03T03:18:32;29.70;56.80
21275;DHT22;36472;52.170;20.884;2022-08-03T03:21:03;29.60;56.70
21275;DHT22;36472;52.170;20.884;2022-08-03T03:23:35;29.70;56.90
21275;DHT22;36472;52.170;20.884;2022-08-03T03:26:06;29.60;56.90
21275;DHT22;36472;52.170;20.884;2022-08-03T03:28:35;29.70;57.00
21275;DHT22;36472;52.170;20.884;2022-08-03T03:31:05;29.70;56.90
21275;DHT22;36472;52.170;20.884;2022-08-03T03:33:37;29.70;56.90
21275;DHT22;36472;52.170;20.884;2022-08-03T03:36:06;29.70;57.00
21275;DHT22;36472;52.170;20.884;2022-08-03T03:38:35;29.80;57.10
21275;DHT22;36472;52.170;20.884;2022-08-03T03:41:04;29.80;57.00
21275;DHT22;36472;52.170;20.884;2022-08-03T03:43:33;29.80;57.00
21275;DHT22;36472;52.170;20.884;2022-08-03T03:46:02;29.80;57.10
21275;DHT22;36472;52.170;20.884;2022-08-03T03:48:32;29.80;57.20
21275;DHT22;36472;52.170;20.884;2022-08-03T03:51:03;29.90;57.40
21275;DHT22;36472;52.170;20.884;2022-08-03T03:53:34;29.90;57.40
21275;DHT22;36472;52.170;20.884;2022-08-03T03:56:03;30.10;57.40
21275;DHT22;36472;52.170;20.884;2022-08-03T03:58:31;30.10;57.20
21275;DHT22;36472;52.170;20.884;2022-08-03T04:01:00;30.30;57.70
21275;DHT22;36472;52.170;20.884;2022-08-03T04:03:29;30.30;57.00
21275;DHT22;36472;52.170;20.884;2022-08-03T04:05:58;30.40;56.90
21275;DHT22;36472;52.170;20.884;2022-08-03T04:08:45;30.40;56.90
21275;DHT22;36472;52.170;20.884;2022-08-03T04:11:42;30.50;56.90
21275;DHT22;36472;52.170;20.884;2022-08-03T04:14:18;30.50;57.00
21275;DHT22;36472;52.170;20.884;2022-08-03T04:16:52;30.60;57.10
21275;DHT22;36472;52.170;20.884;2022-08-03T04:19:29;30.70;57.20
21275;DHT22;36472;52.170;20.884;2022-08-03T04:22:06;30.80;56.90
21275;DHT22;36472;52.170;20.884;2022-08-03T04:24:45;30.90;57.00
21275;DHT22;36472;52.170;20.884;2022-08-03T04:27:20;30.90;57.10
21275;DHT22;36472;52.170;20.884;2022-08-03T04:29:54;30.90;56.90
21275;DHT22;36472;52.170;20.884;2022-08-03T04:32:26;31.00;56.80
21275;DHT22;36472;52.170;20.884;2022-08-03T04:34:56;31.10;56.60
21275;DHT22;36472;52.170;20.884;2022-08-03T04:37:32;31.20;56.60
21275;DHT22;36472;52.170;20.884;2022-08-03T04:40:09;31.20;56.50
21275;DHT22;36472;52.170;20.884;2022-08-03T04:42:42;31.40;56.40
21275;DHT22;36472;52.170;20.884;2022-08-03T04:45:12;31.40;56.30
21275;DHT22;36472;52.170;20.884;2022-08-03T04:47:43;31.50;56.20
21275;DHT22;36472;52.170;20.884;2022-08-03T04:50:12;31.50;56.40
21275;DHT22;36472;52.170;20.884;2022-08-03T04:53:04;31.40;56.40
21275;DHT22;36472;52.170;20.884;2022-08-03T04:55:35;31.50;56.50
21275;DHT22;36472;52.170;20.884;2022-08-03T04:58:04;31.50;56.60
21275;DHT22;36472;52.170;20.884;2022-08-03T05:00:34;31.50;56.60
21275;DHT22;36472;52.170;20.884;2022-08-03T05:03:03;31.50;56.60
21275;DHT22;36472;52.170;20.884;2022-08-03T05:05:50;31.60;56.70
21275;DHT22;36472;52.170;20.884;2022-08-03T05:08:37;31.70;56.50
21275;DHT22;36472;52.170;20.884;2022-08-03T05:11:16;31.70;56.50
21275;DHT22;36472;52.170;20.884;2022-08-03T05:13:46;31.70;56.50
21275;DHT22;36472;52.170;20.884;2022-08-03T05:16:15;31.80;56.40
21275;DHT22;36472;52.170;20.884;2022-08-03T05:18:44;31.90;56.00
21275;DHT22;36472;52.170;20.884;2022-08-03T05:21:13;31.90;56.00
21275;DHT22;36472;52.170;20.884;2022-08-03T05:23:42;31.90;56.00
21275;DHT22;36472;52.170;20.884;2022-08-03T05:26:12;31.90;56.00
21275;DHT22;36472;52.170;20.884;2022-08-03T05:28:42;32.00;55.90
21275;DHT22;36472;52.170;20.884;2022-08-03T05:31:18;32.00;55.80
21275;DHT22;36472;52.170;20.884;2022-08-03T05:33:46;32.00;55.50
21275;DHT22;36472;52.170;20.884;2022-08-03T05:36:15;31.90;55.70
21275;DHT22;36472;52.170;20.884;2022-08-03T05:38:44;32.00;55.90
21275;DHT22;36472;52.170;20.884;2022-08-03T05:41:13;32.20;55.30
21275;DHT22;36472;52.170;20.884;2022-08-03T05:43:52;32.00;55.30
21275;DHT22;36472;52.170;20.884;2022-08-03T05:46:22;31.70;55.90
21275;DHT22;36472;52.170;20.884;2022-08-03T05:48:51;31.50;56.50
21275;DHT22;36472;52.170;20.884;2022-08-03T05:51:20;31.60;56.70
21275;DHT22;36472;52.170;20.884;2022-08-03T05:53:48;31.70;56.70
21275;DHT22;36472;52.170;20.884;2022-08-03T05:56:21;31.90;56.30
21275;DHT22;36472;52.170;20.884;2022-08-03T05:58:52;31.90;56.20
21275;DHT22;36472;52.170;20.884;2022-08-03T06:01:21;31.90;56.30
21275;DHT22;36472;52.170;20.884;2022-08-03T06:03:50;31.90;56.40
21275;DHT22;36472;52.170;20.884;2022-08-03T06:06:20;32.00;56.40
21275;DHT22;36472;52.170;20.884;2022-08-03T06:08:49;32.10;56.30
21275;DHT22;36472;52.170;20.884;2022-08-03T06:11:18;32.20;56.20
21275;DHT22;36472;52.170;20.884;2022-08-03T06:13:46;32.30;55.70
21275;DHT22;36472;52.170;20.884;2022-08-03T06:16:16;32.30;55.90
21275;DHT22;36472;52.170;20.884;2022-08-03T06:18:45;32.30;56.10
21275;DHT22;36472;52.170;20.884;2022-08-03T06:21:13;32.30;56.20
21275;DHT22;36472;52.170;20.884;2022-08-03T06:23:44;32.20;55.70
21275;DHT22;36472;52.170;20.884;2022-08-03T06:26:25;31.50;55.30
21275;DHT22;36472;52.170;20.884;2022-08-03T06:28:55;31.50;56.60
21275;DHT22;36472;52.170;20.884;2022-08-03T06:31:27;31.70;56.60
21275;DHT22;36472;52.170;20.884;2022-08-03T06:34:04;32.00;56.00
21275;DHT22;36472;52.170;20.884;2022-08-03T06:36:53;32.30;55.40
21275;DHT22;36472;52.170;20.884;2022-08-03T06:39:28;32.30;56.10
21275;DHT22;36472;52.170;20.884;2022-08-03T06:41:57;32.30;55.90
21275;DHT22;36472;52.170;20.884;2022-08-03T06:44:26;31.90;55.70
21275;DHT22;36472;52.170;20.884;2022-08-03T06:46:56;32.00;55.60
21275;DHT22;36472;52.170;20.884;2022-08-03T06:49:25;31.50;56.20
21275;DHT22;36472;52.170;20.884;2022-08-03T06:51:54;30.70;57.30
21275;DHT22;36472;52.170;20.884;2022-08-03T06:54:34;30.50;58.40
21275;DHT22;36472;52.170;20.884;2022-08-03T06:57:04;30.60;58.40
21275;DHT22;36472;52.170;20.884;2022-08-03T06:59:34;31.00;58.20
21275;DHT22;36472;52.170;20.884;2022-08-03T07:02:24;31.20;58.50
21275;DHT22;36472;52.170;20.884;2022-08-03T07:04:56;31.30;58.40
21275;DHT22;36472;52.170;20.884;2022-08-03T07:07:24;31.70;58.10
21275;DHT22;36472;52.170;20.884;2022-08-03T07:09:53;32.30;56.90
21275;DHT22;36472;52.170;20.884;2022-08-03T07:12:25;32.70;55.60
21275;DHT22;36472;52.170;20.884;2022-08-03T07:14:57;33.10;54.70
21275;DHT22;36472;52.170;20.884;2022-08-03T07:17:33;32.80;55.00
21275;DHT22;36472;52.170;20.884;2022-08-03T07:20:04;33.00;55.30
21275;DHT22;36472;52.170;20.884;2022-08-03T07:22:35;33.60;54.00
21275;DHT22;36472;52.170;20.884;2022-08-03T07:25:05;33.60;53.60
21275;DHT22;36472;52.170;20.884;2022-08-03T07:27:35;34.10;52.30
21275;DHT22;36472;52.170;20.884;2022-08-03T07:30:06;33.30;52.00
21275;DHT22;36472;52.170;20.884;2022-08-03T07:32:37;33.30;53.50
21275;DHT22;36472;52.170;20.884;2022-08-03T07:35:16;33.30;53.50
21275;DHT22;36472;52.170;20.884;2022-08-03T07:37:51;33.80;53.20
21275;DHT22;36472;52.170;20.884;2022-08-03T07:40:21;33.80;52.60
21275;DHT22;36472;52.170;20.884;2022-08-03T07:42:58;33.60;53.40
21275;DHT22;36472;52.170;20.884;2022-08-03T07:45:29;34.20;52.90
21275;DHT22;36472;52.170;20.884;2022-08-03T07:47:59;34.60;51.00
21275;DHT22;36472;52.170;20.884;2022-08-03T07:50:28;34.90;50.90
21275;DHT22;36472;52.170;20.884;2022-08-03T07:52:57;35.40;50.90
21275;DHT22;36472;52.170;20.884;2022-08-03T07:55:26;35.70;49.20
21275;DHT22;36472;52.170;20.884;2022-08-03T07:58:02;35.90;49.80
21275;DHT22;36472;52.170;20.884;2022-08-03T08:00:34;36.60;49.90
21275;DHT22;36472;52.170;20.884;2022-08-03T08:03:04;37.10;45.10
21275;DHT22;36472;52.170;20.884;2022-08-03T08:05:33;37.10;45.10
21275;DHT22;36472;52.170;20.884;2022-08-03T08:08:02;36.80;45.80
21275;DHT22;36472;52.170;20.884;2022-08-03T08:10:32;37.60;45.50
21275;DHT22;36472;52.170;20.884;2022-08-03T08:13:01;38.40;44.20
21275;DHT22;36472;52.170;20.884;2022-08-03T08:15:30;38.70;43.50
21275;DHT22;36472;52.170;20.884;2022-08-03T08:18:00;39.20;42.20
21275;DHT22;36472;52.170;20.884;2022-08-03T08:20:32;38.60;41.50
21275;DHT22;36472;52.170;20.884;2022-08-03T08:23:06;38.60;41.50
21275;DHT22;36472;52.170;20.884;2022-08-03T08:25:55;38.20;42.30
21275;DHT22;36472;52.170;20.884;2022-08-03T08:28:24;37.70;43.10
21275;DHT22;36472;52.170;20.884;2022-08-03T08:31:00;37.40;43.70
21275;DHT22;36472;52.170;20.884;2022-08-03T08:33:29;36.90;43.50
21275;DHT22;36472;52.170;20.884;2022-08-03T08:36:20;36.80;44.50
21275;DHT22;36472;52.170;20.884;2022-08-03T08:38:49;36.80;46.00
21275;DHT22;36472;52.170;20.884;2022-08-03T08:41:17;36.80;46.40
21275;DHT22;36472;52.170;20.884;2022-08-03T08:43:46;36.80;46.40
21275;DHT22;36472;52.170;20.884;2022-08-03T08:46:15;36.90;46.90
21275;DHT22;36472;52.170;20.884;2022-08-03T08:48:51;36.90;45.60
21275;DHT22;36472;52.170;20.884;2022-08-03T08:51:27;36.70;45.60
21275;DHT22;36472;52.170;20.884;2022-08-03T08:54:21;36.50;48.20
21275;DHT22;36472;52.170;20.884;2022-08-03T08:56:52;37.00;45.30
21275;DHT22;36472;52.170;20.884;2022-08-03T08:59:25;37.60;46.50
21275;DHT22;36472;52.170;20.884;2022-08-03T09:02:14;38.30;43.70
21275;DHT22;36472;52.170;20.884;2022-08-03T09:04:43;38.90;43.00
21275;DHT22;36472;52.170;20.884;2022-08-03T09:07:16;39.10;40.40
21275;DHT22;36472;52.170;20.884;2022-08-03T09:09:46;39.10;41.00
21275;DHT22;36472;52.170;20.884;2022-08-03T09:12:37;38.90;41.70
21275;DHT22;36472;52.170;20.884;2022-08-03T09:15:20;38.50;41.70
21275;DHT22;36472;52.170;20.884;2022-08-03T09:17:52;38.90;41.90
21275;DHT22;36472;52.170;20.884;2022-08-03T09:20:24;39.80;40.80
21275;DHT22;36472;52.170;20.884;2022-08-03T09:22:58;40.90;40.80
21275;DHT22;36472;52.170;20.884;2022-08-03T09:25:29;42.10;38.80
21275;DHT22;36472;52.170;20.884;2022-08-03T09:28:10;42.60;35.70
21275;DHT22;36472;52.170;20.884;2022-08-03T09:31:00;43.30;35.60
21275;DHT22;36472;52.170;20.884;2022-08-03T09:33:29;44.10;33.70
21275;DHT22;36472;52.170;20.884;2022-08-03T09:36:02;44.00;33.40
21275;DHT22;36472;52.170;20.884;2022-08-03T09:38:33;42.90;34.30
21275;DHT22;36472;52.170;20.884;2022-08-03T09:41:01;42.30;35.80
21275;DHT22;36472;52.170;20.884;2022-08-03T09:43:45;42.80;37.80
21275;DHT22;36472;52.170;20.884;2022-08-03T09:46:14;43.50;35.40
21275;DHT22;36472;52.170;20.884;2022-08-03T09:48:42;44.20;35.10
21275;DHT22;36472;52.170;20.884;2022-08-03T09:51:12;44.70;33.50
21275;DHT22;36472;52.170;20.884;2022-08-03T09:54:03;45.10;32.40
21275;DHT22;36472;52.170;20.884;2022-08-03T09:56:44;45.40;31.60
21275;DHT22;36472;52.170;20.884;2022-08-03T09:59:24;45.70;31.60
21275;DHT22;36472;52.170;20.884;2022-08-03T10:01:54;46.00;33.50
21275;DHT22;36472;52.170;20.884;2022-08-03T10:04:25;46.00;31.80
21275;DHT22;36472;52.170;20.884;2022-08-03T10:07:02;45.50;32.40
21275;DHT22;36472;52.170;20.884;2022-08-03T10:09:34;45.80;31.70
21275;DHT22;36472;52.170;20.884;2022-08-03T10:12:08;44.20;31.80
21275;DHT22;36472;52.170;20.884;2022-08-03T10:14:38;44.40;32.70
21275;DHT22;36472;52.170;20.884;2022-08-03T10:17:08;44.80;32.10
21275;DHT22;36472;52.170;20.884;2022-08-03T10:19:37;44.90;33.00
21275;DHT22;36472;52.170;20.884;2022-08-03T10:22:11;45.30;32.50
21275;DHT22;36472;52.170;20.884;2022-08-03T10:24:48;45.60;31.20
21275;DHT22;36472;52.170;20.884;2022-08-03T10:27:22;45.70;30.90
21275;DHT22;36472;52.170;20.884;2022-08-03T10:29:53;45.60;31.40
21275;DHT22;36472;52.170;20.884;2022-08-03T10:32:27;45.40;32.40
21275;DHT22;36472;52.170;20.884;2022-08-03T10:35:03;45.20;31.90
21275;DHT22;36472;52.170;20.884;2022-08-03T10:37:51;45.00;32.90
21275;DHT22;36472;52.170;20.884;2022-08-03T10:40:29;44.10;31.80
21275;DHT22;36472;52.170;20.884;2022-08-03T10:43:19;43.30;33.90
21275;DHT22;36472;52.170;20.884;2022-08-03T10:45:49;43.20;34.40
21275;DHT22;36472;52.170;20.884;2022-08-03T10:48:19;41.60;33.70
21275;DHT22;36472;52.170;20.884;2022-08-03T10:50:49;41.50;35.00
21275;DHT22;36472;52.170;20.884;2022-08-03T10:53:33;41.50;35.40
21275;DHT22;36472;52.170;20.884;2022-08-03T10:56:05;41.40;34.90
21275;DHT22;36472;52.170;20.884;2022-08-03T10:59:17;40.70;36.50
21275;DHT22;36472;52.170;20.884;2022-08-03T11:01:55;39.60;36.70
21275;DHT22;36472;52.170;20.884;2022-08-03T11:04:27;39.40;37.20
21275;DHT22;36472;52.170;20.884;2022-08-03T11:07:19;39.10;37.80
21275;DHT22;36472;52.170;20.884;2022-08-03T11:09:51;38.80;39.60
21275;DHT22;36472;52.170;20.884;2022-08-03T11:12:24;38.10;39.00
21275;DHT22;36472;52.170;20.884;2022-08-03T11:14:59;37.80;40.10
21275;DHT22;36472;52.170;20.884;2022-08-03T11:17:30;38.10;39.50
21275;DHT22;36472;52.170;20.884;2022-08-03T11:20:13;37.70;39.70
21275;DHT22;36472;52.170;20.884;2022-08-03T11:22:49;38.20;40.00
21275;DHT22;36472;52.170;20.884;2022-08-03T11:25:21;38.80;40.00
21275;DHT22;36472;52.170;20.884;2022-08-03T11:28:26;39.30;38.60
21275;DHT22;36472;52.170;20.884;2022-08-03T11:34:17;40.10;38.00
21275;DHT22;36472;52.170;20.884;2022-08-03T11:37:17;39.20;37.80
21275;DHT22;36472;52.170;20.884;2022-08-03T11:39:59;39.30;39.50
21275;DHT22;36472;52.170;20.884;2022-08-03T11:42:42;39.50;38.90
21275;DHT22;36472;52.170;20.884;2022-08-03T11:45:13;39.60;39.10
21275;DHT22;36472;52.170;20.884;2022-08-03T11:47:43;39.80;39.40
21275;DHT22;36472;52.170;20.884;2022-08-03T11:50:18;39.80;38.10
21275;DHT22;36472;52.170;20.884;2022-08-03T11:52:48;39.90;38.20
21275;DHT22;36472;52.170;20.884;2022-08-03T11:55:18;39.80;37.70
21275;DHT22;36472;52.170;20.884;2022-08-03T11:57:48;39.60;38.80
21275;DHT22;36472;52.170;20.884;2022-08-03T12:00:37;39.40;39.50
21275;DHT22;36472;52.170;20.884;2022-08-03T12:03:12;38.10;40.30
21275;DHT22;36472;52.170;20.884;2022-08-03T12:05:47;37.80;40.80
21275;DHT22;36472;52.170;20.884;2022-08-03T12:08:30;37.80;40.60
21275;DHT22;36472;52.170;20.884;2022-08-03T12:11:02;36.80;41.70
21275;DHT22;36472;52.170;20.884;2022-08-03T12:13:37;36.60;42.60
21275;DHT22;36472;52.170;20.884;2022-08-03T12:16:27;36.80;44.40
21275;DHT22;36472;52.170;20.884;2022-08-03T12:18:59;37.20;41.90
21275;DHT22;36472;52.170;20.884;2022-08-03T12:21:29;37.00;41.70
21275;DHT22;36472;52.170;20.884;2022-08-03T12:23:59;36.60;42.50
21275;DHT22;36472;52.170;20.884;2022-08-03T12:26:42;36.50;43.40
21275;DHT22;36472;52.170;20.884;2022-08-03T12:29:26;36.50;43.40
21275;DHT22;36472;52.170;20.884;2022-08-03T12:31:55;36.20;42.70
21275;DHT22;36472;52.170;20.884;2022-08-03T12:34:44;36.40;43.90
21275;DHT22;36472;52.170;20.884;2022-08-03T12:37:17;36.80;43.70
21275;DHT22;36472;52.170;20.884;2022-08-03T12:39:56;36.90;43.70
21275;DHT22;36472;52.170;20.884;2022-08-03T12:42:38;36.60;42.70
21275;DHT22;36472;52.170;20.884;2022-08-03T12:45:21;36.50;43.40
21275;DHT22;36472;52.170;20.884;2022-08-03T12:47:52;36.30;43.00
21275;DHT22;36472;52.170;20.884;2022-08-03T12:50:30;36.40;42.50
21275;DHT22;36472;52.170;20.884;2022-08-03T12:53:02;36.50;42.80
21275;DHT22;36472;52.170;20.884;2022-08-03T12:55:36;36.70;42.90
21275;DHT22;36472;52.170;20.884;2022-08-03T12:58:29;36.50;42.60
21275;DHT22;36472;52.170;20.884;2022-08-03T13:01:01;36.30;42.40
21275;DHT22;36472;52.170;20.884;2022-08-03T13:03:40;36.50;42.70
21275;DHT22;36472;52.170;20.884;2022-08-03T13:06:19;36.90;42.80
21275;DHT22;36472;52.170;20.884;2022-08-03T13:09:01;37.00;41.80
21275;DHT22;36472;52.170;20.884;2022-08-03T13:11:32;36.90;41.90
21275;DHT22;36472;52.170;20.884;2022-08-03T13:14:21;37.00;43.30
21275;DHT22;36472;52.170;20.884;2022-08-03T13:16:50;37.10;42.10
21275;DHT22;36472;52.170;20.884;2022-08-03T13:19:18;36.40;42.30
21275;DHT22;36472;52.170;20.884;2022-08-03T13:21:48;36.00;43.50
21275;DHT22;36472;52.170;20.884;2022-08-03T13:24:30;35.90;42.80
21275;DHT22;36472;52.170;20.884;2022-08-03T13:27:00;36.30;44.00
21275;DHT22;36472;52.170;20.884;2022-08-03T13:29:51;36.40;43.30
21275;DHT22;36472;52.170;20.884;2022-08-03T13:32:20;36.40;42.60
21275;DHT22;36472;52.170;20.884;2022-08-03T13:34:50;36.80;43.30
21275;DHT22;36472;52.170;20.884;2022-08-03T13:37:20;37.10;43.00
21275;DHT22;36472;52.170;20.884;2022-08-03T13:39:50;37.10;41.50
21275;DHT22;36472;52.170;20.884;2022-08-03T13:42:28;36.80;42.30
21275;DHT22;36472;52.170;20.884;2022-08-03T13:44:58;36.40;42.00
21275;DHT22;36472;52.170;20.884;2022-08-03T13:47:28;36.40;44.00
21275;DHT22;36472;52.170;20.884;2022-08-03T13:49:56;36.40;44.10
21275;DHT22;36472;52.170;20.884;2022-08-03T13:52:33;36.60;42.90
21275;DHT22;36472;52.170;20.884;2022-08-03T13:55:04;36.30;42.20
21275;DHT22;36472;52.170;20.884;2022-08-03T13:57:35;36.80;42.80
21275;DHT22;36472;52.170;20.884;2022-08-03T14:00:23;36.90;43.00
21275;DHT22;36472;52.170;20.884;2022-08-03T14:02:57;37.40;42.10
21275;DHT22;36472;52.170;20.884;2022-08-03T14:05:38;37.70;42.10
21275;DHT22;36472;52.170;20.884;2022-08-03T14:08:09;37.00;41.50
21275;DHT22;36472;52.170;20.884;2022-08-03T14:10:40;37.10;42.00
21275;DHT22;36472;52.170;20.884;2022-08-03T14:13:11;36.50;41.90
21275;DHT22;36472;52.170;20.884;2022-08-03T14:15:44;36.80;43.20
21275;DHT22;36472;52.170;20.884;2022-08-03T14:18:17;37.00;42.90
21275;DHT22;36472;52.170;20.884;2022-08-03T14:20:56;37.30;42.50
21275;DHT22;36472;52.170;20.884;2022-08-03T14:23:34;37.10;40.60
21275;DHT22;36472;52.170;20.884;2022-08-03T14:26:04;37.30;41.90
21275;DHT22;36472;52.170;20.884;2022-08-03T14:28:34;37.50;41.90
21275;DHT22;36472;52.170;20.884;2022-08-03T14:31:03;37.50;40.80
21275;DHT22;36472;52.170;20.884;2022-08-03T14:33:52;37.60;41.20
21275;DHT22;36472;52.170;20.884;2022-08-03T14:36:21;37.90;41.30
21275;DHT22;36472;52.170;20.884;2022-08-03T14:38:51;37.70;40.60
21275;DHT22;36472;52.170;20.884;2022-08-03T14:41:24;36.90;41.50
21275;DHT22;36472;52.170;20.884;2022-08-03T14:43:53;36.90;42.50
21275;DHT22;36472;52.170;20.884;2022-08-03T14:46:29;37.00;43.40
21275;DHT22;36472;52.170;20.884;2022-08-03T14:48:58;36.90;43.00
21275;DHT22;36472;52.170;20.884;2022-08-03T14:51:47;36.60;43.40
21275;DHT22;36472;52.170;20.884;2022-08-03T14:54:21;36.50;42.50
21275;DHT22;36472;52.170;20.884;2022-08-03T14:56:50;36.50;43.80
21275;DHT22;36472;52.170;20.884;2022-08-03T14:59:19;36.80;45.10
21275;DHT22;36472;52.170;20.884;2022-08-03T15:01:47;37.10;43.00
21275;DHT22;36472;52.170;20.884;2022-08-03T15:04:33;37.10;42.60
21275;DHT22;36472;52.170;20.884;2022-08-03T15:07:02;37.20;42.10
21275;DHT22;36472;52.170;20.884;2022-08-03T15:09:32;36.80;42.20
21275;DHT22;36472;52.170;20.884;2022-08-03T15:12:02;36.90;42.30
21275;DHT22;36472;52.170;20.884;2022-08-03T15:14:31;36.70;42.10
21275;DHT22;36472;52.170;20.884;2022-08-03T15:17:04;36.80;42.00
21275;DHT22;36472;52.170;20.884;2022-08-03T15:19:33;36.90;41.30
21275;DHT22;36472;52.170;20.884;2022-08-03T15:22:22;36.90;43.40
21275;DHT22;36472;52.170;20.884;2022-08-03T15:24:52;35.80;44.50
21275;DHT22;36472;52.170;20.884;2022-08-03T15:27:22;36.10;43.60
21275;DHT22;36472;52.170;20.884;2022-08-03T15:29:51;36.00;43.60
21275;DHT22;36472;52.170;20.884;2022-08-03T15:32:35;36.10;42.90
21275;DHT22;36472;52.170;20.884;2022-08-03T15:35:04;36.50;42.50
21275;DHT22;36472;52.170;20.884;2022-08-03T15:37:33;36.70;42.80
21275;DHT22;36472;52.170;20.884;2022-08-03T15:40:05;36.30;43.10
21275;DHT22;36472;52.170;20.884;2022-08-03T15:42:34;36.20;45.20
21275;DHT22;36472;52.170;20.884;2022-08-03T15:45:03;36.50;43.20
21275;DHT22;36472;52.170;20.884;2022-08-03T15:47:32;36.60;43.10
21275;DHT22;36472;52.170;20.884;2022-08-03T15:50:01;36.50;43.20
21275;DHT22;36472;52.170;20.884;2022-08-03T15:52:35;36.50;43.80
21275;DHT22;36472;52.170;20.884;2022-08-03T15:55:07;36.50;44.60
21275;DHT22;36472;52.170;20.884;2022-08-03T15:57:42;36.80;44.30
21275;DHT22;36472;52.170;20.884;2022-08-03T16:00:30;36.90;44.40
21275;DHT22;36472;52.170;20.884;2022-08-03T16:03:00;37.10;45.00